createdAt,value
2017-08-04T00:00:06.587Z,89.90
2017-08-04T00:02:34.198Z,90.10
2017-08-04T00:05:01.852Z,88.40
2017-08-04T00:07:29.660Z,88.00
2017-08-04T00:09:57.301Z,88.00
2017-08-04T00:12:24.912Z,88.90
2017-08-04T00:14:52.529Z,89.40
2017-08-04T00:17:21.078Z,89.60
2017-08-04T00:19:48.699Z,89.50
2017-08-04T00:22:16.355Z,89.00
2017-08-04T00:24:43.973Z,89.90
2017-08-04T00:27:11.575Z,90.10
2017-08-04T00:29:39.227Z,90.00
2017-08-04T00:32:07.604Z,90.30
2017-08-04T00:34:35.247Z,90.30
2017-08-04T00:37:02.875Z,90.90
2017-08-04T00:39:30.527Z,90.90
2017-08-04T00:41:58.991Z,92.50
2017-08-04T00:44:27.403Z,92.00
2017-08-04T00:46:55.064Z,91.90
2017-08-04T00:49:22.689Z,93.30
2017-08-04T00:51:50.309Z,93.60
2017-08-04T00:54:18.729Z,93.30
2017-08-04T00:56:46.362Z,93.30
2017-08-04T00:59:14.016Z,92.70
2017-08-04T01:01:41.641Z,93.10
2017-08-04T01:04:09.269Z,93.10
2017-08-04T01:06:36.918Z,93.40
2017-08-04T01:09:04.536Z,93.20
2017-08-04T01:11:32.955Z,93.80
2017-08-04T01:14:01.486Z,93.70
2017-08-04T01:16:29.118Z,94.00
2017-08-04T01:18:56.765Z,93.50
2017-08-04T01:21:25.145Z,92.60
2017-08-04T01:23:52.796Z,92.60
2017-08-04T01:26:20.434Z,93.30
2017-08-04T01:28:48.067Z,93.50
2017-08-04T01:31:15.722Z,92.50
2017-08-04T01:33:44.112Z,92.60
2017-08-04T01:36:11.744Z,92.50
2017-08-04T01:38:39.373Z,93.50
2017-08-04T01:41:07.756Z,93.50
2017-08-04T01:43:41.142Z,93.50
2017-08-04T01:46:08.792Z,94.00
2017-08-04T01:48:36.482Z,94.30
2017-08-04T01:51:04.108Z,94.30
2017-08-04T01:53:31.736Z,94.10
2017-08-04T01:56:00.083Z,94.30
2017-08-04T01:58:27.695Z,94.10
2017-08-04T02:00:56.150Z,93.90
2017-08-04T02:03:23.782Z,93.80
2017-08-04T02:05:51.394Z,94.10
2017-08-04T02:08:19.037Z,93.60
2017-08-04T02:10:46.793Z,94.40
2017-08-04T02:13:14.442Z,94.30
2017-08-04T02:15:42.058Z,93.50
2017-08-04T02:18:10.490Z,94.90
2017-08-04T02:20:38.148Z,94.80
2017-08-04T02:23:06.577Z,94.10
2017-08-04T02:25:34.248Z,94.00
2017-08-04T02:28:01.881Z,93.70
2017-08-04T02:30:29.573Z,94.50
2017-08-04T02:32:57.971Z,94.80
2017-08-04T02:35:25.599Z,94.80
2017-08-04T02:37:53.254Z,92.80
2017-08-04T02:40:20.856Z,93.20
2017-08-04T02:42:48.468Z,94.30
2017-08-04T02:45:16.121Z,93.20
2017-08-04T02:47:43.742Z,92.80
2017-08-04T02:50:11.393Z,93.00
2017-08-04T02:52:39.240Z,92.00
2017-08-04T02:55:06.865Z,91.50
2017-08-04T02:57:35.277Z,92.40
2017-08-04T03:00:02.938Z,92.30
2017-08-04T03:02:30.588Z,92.90
2017-08-04T03:04:58.212Z,89.30
2017-08-04T03:07:25.820Z,89.50
2017-08-04T03:09:54.224Z,83.50
2017-08-04T03:12:21.837Z,83.50
2017-08-04T03:14:49.584Z,84.30
2017-08-04T03:17:17.207Z,86.90
2017-08-04T03:19:44.811Z,86.00
2017-08-04T03:22:12.476Z,86.30
2017-08-04T03:24:40.085Z,86.10
2017-08-04T03:27:07.737Z,87.40
2017-08-04T03:29:35.365Z,87.50
2017-08-04T03:32:03.041Z,85.00
2017-08-04T03:34:30.689Z,82.80
2017-08-04T03:36:58.289Z,83.40
2017-08-04T03:39:26.724Z,79.70
2017-08-04T03:41:54.340Z,79.60
2017-08-04T03:44:21.939Z,75.20
2017-08-04T03:46:50.346Z,71.70
2017-08-04T03:49:17.960Z,71.70
2017-08-04T03:51:46.363Z,71.40
2017-08-04T03:54:13.988Z,71.40
2017-08-04T03:56:41.607Z,72.80
2017-08-04T03:59:10.128Z,75.00
2017-08-04T04:01:37.744Z,74.40
2017-08-04T04:04:05.403Z,69.00
2017-08-04T04:06:33.056Z,72.70
2017-08-04T04:09:00.664Z,69.20
2017-08-04T04:11:29.099Z,74.10
2017-08-04T04:13:56.730Z,74.10
2017-08-04T04:16:24.411Z,72.40
2017-08-04T04:18:52.805Z,74.30
2017-08-04T04:21:20.444Z,74.40
2017-08-04T04:23:48.090Z,76.30
2017-08-04T04:26:15.722Z,77.50
2017-08-04T04:28:44.124Z,77.10
2017-08-04T04:31:11.729Z,77.00
2017-08-04T04:33:40.124Z,73.10
2017-08-04T04:36:07.756Z,73.10
2017-08-04T04:38:35.362Z,70.00
2017-08-04T04:41:03.027Z,73.30
2017-08-04T04:43:30.695Z,74.30
2017-08-04T04:45:58.323Z,76.10
2017-08-04T04:48:26.731Z,74.10
2017-08-04T04:50:54.378Z,74.10
2017-08-04T04:53:22.041Z,70.00
2017-08-04T04:55:49.664Z,69.80
2017-08-04T04:58:17.264Z,69.10
2017-08-04T05:00:44.910Z,67.90
2017-08-04T05:03:12.693Z,66.90
2017-08-04T05:05:40.390Z,68.40
2017-08-04T05:08:08.013Z,68.40
2017-08-04T05:10:35.659Z,67.90
2017-08-04T05:13:03.410Z,62.60
2017-08-04T05:15:31.030Z,61.30
2017-08-04T05:17:58.730Z,60.30
2017-08-04T05:20:26.374Z,62.00
2017-08-04T05:22:53.998Z,61.80
2017-08-04T05:25:21.656Z,62.40
2017-08-04T05:27:49.310Z,56.80
2017-08-04T05:30:17.017Z,56.40
2017-08-04T05:32:44.630Z,56.50
2017-08-04T05:35:12.253Z,55.20
2017-08-04T05:37:40.002Z,54.80
2017-08-04T05:40:07.648Z,53.50
2017-08-04T05:42:35.290Z,52.10
2017-08-04T05:45:02.954Z,51.90
2017-08-04T05:47:30.605Z,51.90
2017-08-04T05:49:58.251Z,51.50
2017-08-04T05:52:25.897Z,56.90
2017-08-04T05:54:53.532Z,54.60
2017-08-04T05:57:21.145Z,51.20
2017-08-04T05:59:48.753Z,51.90
2017-08-04T06:02:16.438Z,54.10
2017-08-04T06:04:44.066Z,51.60
2017-08-04T06:07:11.713Z,49.20
2017-08-04T06:09:39.316Z,50.40
2017-08-04T06:12:06.927Z,49.10
2017-08-04T06:14:34.574Z,49.60
2017-08-04T06:17:02.192Z,50.00
2017-08-04T06:19:29.840Z,50.20
2017-08-04T06:21:57.439Z,50.50
2017-08-04T06:24:25.056Z,48.20
2017-08-04T06:26:52.708Z,48.80
2017-08-04T06:29:20.315Z,50.50
2017-08-04T06:31:47.955Z,50.10
2017-08-04T06:34:16.324Z,51.30
2017-08-04T06:36:44.696Z,48.30
2017-08-04T06:39:12.377Z,48.30
2017-08-04T06:41:40.000Z,48.60
2017-08-04T06:44:07.713Z,47.10
2017-08-04T06:46:35.333Z,46.10
2017-08-04T06:49:14.916Z,51.10
2017-08-04T06:51:54.363Z,49.40
2017-08-04T06:54:34.803Z,43.40
2017-08-04T06:57:02.458Z,42.00
2017-08-04T06:59:30.063Z,44.50
2017-08-04T07:01:57.703Z,45.60
2017-08-04T07:04:26.076Z,49.80
2017-08-04T07:06:53.722Z,49.70
2017-08-04T07:09:21.339Z,49.70
2017-08-04T07:11:48.968Z,46.70
2017-08-04T07:14:16.640Z,46.70
2017-08-04T07:16:45.216Z,44.30
2017-08-04T07:19:12.904Z,44.30
2017-08-04T07:21:40.538Z,47.50
2017-08-04T07:24:08.183Z,46.70
2017-08-04T07:26:35.838Z,50.50
2017-08-04T07:29:03.495Z,46.20
2017-08-04T07:31:31.158Z,45.80
2017-08-04T07:33:58.793Z,45.20
2017-08-04T07:36:26.465Z,45.30
2017-08-04T07:38:54.114Z,44.00
2017-08-04T07:41:21.725Z,41.90
2017-08-04T07:43:49.386Z,36.20
2017-08-04T07:46:17.001Z,37.60
2017-08-04T07:48:44.603Z,36.10
2017-08-04T07:51:12.245Z,34.70
2017-08-04T07:53:39.988Z,36.80
2017-08-04T07:56:07.653Z,36.40
2017-08-04T07:58:35.247Z,33.80
2017-08-04T08:01:02.851Z,34.70
2017-08-04T08:03:31.262Z,33.70
2017-08-04T08:05:58.880Z,33.60
2017-08-04T08:08:26.522Z,36.90
2017-08-04T08:10:54.149Z,35.30
2017-08-04T08:13:22.531Z,36.60
2017-08-04T08:15:50.173Z,35.60
2017-08-04T08:18:18.554Z,28.60
2017-08-04T08:20:46.388Z,28.70
2017-08-04T08:23:14.000Z,27.40
2017-08-04T08:25:41.604Z,21.90
2017-08-04T08:28:09.276Z,20.40
2017-08-04T08:30:36.898Z,21.20
2017-08-04T08:33:04.549Z,23.70
2017-08-04T08:35:32.172Z,20.00
2017-08-04T08:38:00.615Z,19.20
2017-08-04T08:40:28.253Z,19.20
2017-08-04T08:42:55.881Z,17.70
2017-08-04T08:45:23.512Z,17.20
2017-08-04T08:47:52.024Z,17.00
2017-08-04T08:50:20.402Z,15.70
2017-08-04T08:52:48.819Z,14.50
2017-08-04T08:55:16.427Z,14.50
2017-08-04T08:57:44.061Z,13.30
2017-08-04T09:00:11.678Z,15.20
2017-08-04T09:02:39.306Z,16.60
2017-08-04T09:05:06.966Z,16.90
2017-08-04T09:07:34.588Z,13.70
2017-08-04T09:10:02.247Z,14.10
2017-08-04T09:12:30.010Z,13.80
2017-08-04T09:14:57.625Z,15.00
2017-08-04T09:17:25.276Z,14.50
2017-08-04T09:19:52.875Z,14.50
2017-08-04T09:22:21.291Z,15.30
2017-08-04T09:24:48.890Z,15.20
2017-08-04T09:27:16.518Z,14.20
2017-08-04T09:29:44.934Z,14.90
2017-08-04T09:32:12.544Z,14.80
2017-08-04T09:34:40.477Z,13.40
2017-08-04T09:37:08.889Z,17.70
2017-08-04T09:39:36.568Z,17.10
2017-08-04T09:42:04.204Z,17.00
2017-08-04T09:44:31.857Z,18.10
2017-08-04T09:46:59.577Z,19.20
2017-08-04T09:49:27.217Z,20.00
2017-08-04T09:51:55.088Z,19.00
2017-08-04T09:54:22.852Z,17.70
2017-08-04T09:56:51.413Z,17.60
2017-08-04T09:59:19.948Z,18.30
2017-08-04T10:01:47.592Z,15.00
2017-08-04T10:04:15.282Z,16.40
2017-08-04T10:06:44.522Z,12.80
2017-08-04T10:09:12.322Z,15.20
2017-08-04T10:11:42.088Z,16.00
2017-08-04T10:14:10.456Z,16.80
2017-08-04T10:16:38.112Z,16.60
2017-08-04T10:19:05.755Z,16.10
2017-08-04T10:21:34.028Z,16.00
2017-08-04T10:24:04.935Z,13.10
2017-08-04T10:26:32.706Z,14.10
2017-08-04T10:29:00.444Z,11.60
2017-08-04T10:31:28.116Z,12.70
2017-08-04T10:33:55.757Z,14.50
2017-08-04T10:36:23.420Z,12.90
2017-08-04T10:38:51.863Z,13.80
2017-08-04T10:41:20.769Z,13.30
2017-08-04T10:43:49.159Z,12.50
2017-08-04T10:46:16.805Z,12.50
2017-08-04T10:48:44.488Z,13.30
2017-08-04T10:51:12.124Z,14.40
2017-08-04T10:53:39.747Z,14.20
2017-08-04T10:56:07.392Z,14.40
2017-08-04T10:58:35.026Z,14.90
2017-08-04T11:01:02.663Z,15.40
2017-08-04T11:03:30.280Z,14.70
2017-08-04T11:05:57.899Z,14.80
2017-08-04T11:08:25.545Z,16.10
2017-08-04T11:10:53.165Z,15.40
2017-08-04T11:13:21.237Z,16.40
2017-08-04T11:15:48.865Z,18.60
2017-08-04T11:18:16.485Z,19.30
2017-08-04T11:20:44.927Z,17.70
2017-08-04T11:23:12.567Z,18.10
2017-08-04T11:25:40.266Z,17.80
2017-08-04T11:28:07.869Z,17.70
2017-08-04T11:30:35.512Z,19.80
2017-08-04T11:33:03.142Z,18.50
2017-08-04T11:35:30.832Z,18.80
2017-08-04T11:37:59.241Z,21.20
2017-08-04T11:40:26.860Z,21.20
2017-08-04T11:42:54.718Z,19.00
2017-08-04T11:45:22.403Z,19.20
2017-08-04T11:47:50.069Z,19.80
2017-08-04T11:50:17.702Z,22.00
2017-08-04T11:52:45.307Z,23.00
2017-08-04T11:55:12.916Z,20.40
2017-08-04T11:57:40.560Z,21.40
2017-08-04T12:00:08.297Z,20.80
2017-08-04T12:02:35.985Z,23.40
2017-08-04T12:05:03.617Z,22.40
2017-08-04T12:07:31.230Z,23.50
2017-08-04T12:09:58.893Z,21.90
2017-08-04T12:12:27.292Z,20.90
2017-08-04T12:14:54.933Z,21.00
2017-08-04T12:17:22.535Z,21.90
2017-08-04T12:19:50.158Z,22.40
2017-08-04T12:22:17.813Z,21.70
2017-08-04T12:24:45.421Z,20.90
2017-08-04T12:27:13.068Z,22.40
2017-08-04T12:29:40.683Z,22.30
2017-08-04T12:32:08.296Z,22.00
2017-08-04T12:34:35.945Z,20.50
2017-08-04T12:37:03.551Z,21.70
2017-08-04T12:39:31.197Z,21.30
2017-08-04T12:41:58.816Z,23.00
2017-08-04T12:44:26.431Z,22.80
2017-08-04T12:46:54.073Z,21.50
2017-08-04T12:49:21.671Z,23.40
2017-08-04T12:51:49.327Z,24.10
2017-08-04T12:54:16.939Z,22.20
2017-08-04T12:56:44.541Z,23.00
2017-08-04T12:59:12.179Z,24.80
2017-08-04T13:01:39.844Z,22.90
2017-08-04T13:04:07.484Z,23.40
2017-08-04T13:06:35.842Z,23.70
2017-08-04T13:09:03.481Z,24.10
2017-08-04T13:11:31.143Z,22.60
2017-08-04T13:13:58.742Z,23.30
2017-08-04T13:16:27.150Z,25.20
2017-08-04T13:18:54.764Z,25.10
2017-08-04T13:21:22.380Z,24.10
2017-08-04T13:23:50.021Z,25.20
2017-08-04T13:26:17.630Z,23.20
2017-08-04T13:28:45.286Z,24.10
2017-08-04T13:31:12.889Z,22.80
2017-08-04T13:33:41.259Z,21.70
2017-08-04T13:36:09.706Z,20.50
2017-08-04T13:38:43.103Z,20.50
2017-08-04T13:41:11.524Z,19.60
2017-08-04T13:43:39.154Z,19.60
2017-08-04T13:46:06.759Z,19.90
2017-08-04T13:48:35.169Z,21.50
2017-08-04T13:51:02.767Z,21.50
2017-08-04T13:53:31.168Z,20.40
2017-08-04T13:55:58.789Z,20.30
2017-08-04T13:58:27.029Z,19.10
2017-08-04T14:00:54.740Z,19.30
2017-08-04T14:03:22.359Z,21.20
2017-08-04T14:05:50.065Z,20.80
2017-08-04T14:08:17.697Z,21.00
2017-08-04T14:10:45.312Z,20.90
2017-08-04T14:13:12.956Z,21.40
2017-08-04T14:15:40.609Z,21.50
2017-08-04T14:18:08.262Z,18.90
2017-08-04T14:20:35.877Z,19.10
2017-08-04T14:23:03.483Z,18.50
2017-08-04T14:25:31.129Z,18.80
2017-08-04T14:27:58.752Z,18.20
2017-08-04T14:30:26.391Z,18.40
2017-08-04T14:32:54.022Z,18.60
2017-08-04T14:35:21.635Z,19.90
2017-08-04T14:37:49.266Z,17.60
2017-08-04T14:40:16.891Z,17.30
2017-08-04T14:42:44.547Z,16.50
2017-08-04T14:45:12.165Z,17.40
2017-08-04T14:47:39.967Z,17.00
2017-08-04T14:50:07.611Z,18.10
2017-08-04T14:52:35.238Z,16.10
2017-08-04T14:55:02.979Z,17.40
2017-08-04T14:57:31.024Z,16.40
2017-08-04T14:59:58.635Z,16.90
2017-08-04T15:02:29.995Z,17.40
2017-08-04T15:04:57.615Z,17.50
2017-08-04T15:07:25.266Z,17.80
2017-08-04T15:09:52.868Z,17.70
2017-08-04T15:12:20.510Z,18.10
2017-08-04T15:14:48.242Z,19.70
2017-08-04T15:17:15.849Z,19.40
2017-08-04T15:19:43.491Z,18.20
2017-08-04T15:22:11.099Z,19.20
2017-08-04T15:24:38.709Z,20.00
2017-08-04T15:27:06.345Z,17.30
2017-08-04T15:29:33.993Z,18.20
2017-08-04T15:32:01.624Z,18.20
2017-08-04T15:34:29.231Z,18.60
2017-08-04T15:36:56.853Z,19.80
2017-08-04T15:39:24.534Z,21.00
2017-08-04T15:41:52.904Z,19.90
2017-08-04T15:44:21.365Z,19.80
2017-08-04T15:46:49.749Z,20.70
2017-08-04T15:49:17.365Z,20.30
2017-08-04T15:51:44.997Z,19.30
2017-08-04T15:54:12.610Z,19.20
2017-08-04T15:56:40.241Z,20.40
2017-08-04T15:59:07.848Z,19.70
2017-08-04T16:01:35.452Z,20.00
2017-08-04T16:04:03.083Z,19.10
2017-08-04T16:06:30.684Z,19.80
2017-08-04T16:08:58.337Z,19.60
2017-08-04T16:11:26.733Z,19.30
2017-08-04T16:13:54.354Z,18.80
2017-08-04T16:16:22.781Z,19.70
2017-08-04T16:18:50.469Z,19.70
2017-08-04T16:21:18.158Z,20.40
2017-08-04T16:23:45.786Z,18.70
2017-08-04T16:26:13.424Z,19.60
2017-08-04T16:28:41.081Z,19.60
2017-08-04T16:31:08.747Z,19.90
2017-08-04T16:33:36.498Z,19.10
2017-08-04T16:36:04.114Z,19.30
2017-08-04T16:38:31.763Z,20.10
2017-08-04T16:40:59.403Z,19.50
2017-08-04T16:43:27.017Z,20.30
2017-08-04T16:45:54.673Z,19.90
2017-08-04T16:48:22.283Z,20.40
2017-08-04T16:50:49.901Z,21.90
2017-08-04T16:53:17.544Z,20.30
2017-08-04T16:55:45.154Z,21.20
2017-08-04T16:58:13.551Z,20.70
2017-08-04T17:00:41.157Z,20.70
2017-08-04T17:03:09.412Z,21.50
2017-08-04T17:05:37.049Z,20.60
2017-08-04T17:08:04.651Z,22.00
2017-08-04T17:10:32.306Z,22.50
2017-08-04T17:12:59.985Z,21.90
2017-08-04T17:15:27.608Z,21.30
2017-08-04T17:17:55.247Z,21.90
2017-08-04T17:20:22.849Z,20.90
2017-08-04T17:22:51.268Z,23.10
2017-08-04T17:25:18.891Z,23.10
2017-08-04T17:27:46.508Z,22.50
2017-08-04T17:30:14.915Z,24.00
2017-08-04T17:32:42.512Z,24.00
2017-08-04T17:35:10.164Z,24.60
2017-08-04T17:37:38.553Z,22.10
2017-08-04T17:40:06.172Z,22.10
2017-08-04T17:42:34.581Z,23.00
2017-08-04T17:45:02.200Z,23.20
2017-08-04T17:47:29.857Z,24.50
2017-08-04T17:49:57.472Z,24.50
2017-08-04T17:52:25.071Z,25.20
2017-08-04T17:54:52.709Z,25.70
2017-08-04T17:57:20.320Z,26.00
2017-08-04T17:59:48.735Z,25.40
2017-08-04T18:02:28.144Z,25.30
2017-08-04T18:04:55.785Z,28.10
2017-08-04T18:07:23.400Z,26.60
2017-08-04T18:09:51.773Z,26.10
2017-08-04T18:12:20.195Z,27.70
2017-08-04T18:14:47.817Z,27.60
2017-08-04T18:17:15.478Z,27.90
2017-08-04T18:19:43.089Z,29.00
2017-08-04T18:22:10.712Z,29.90
2017-08-04T18:24:39.129Z,31.50
2017-08-04T18:27:06.743Z,31.50
2017-08-04T18:29:34.435Z,31.90
2017-08-04T18:32:02.049Z,32.90
2017-08-04T18:34:29.664Z,32.40
2017-08-04T18:36:57.297Z,31.90
2017-08-04T18:39:24.913Z,35.40
2017-08-04T18:41:52.611Z,36.50
2017-08-04T18:44:20.216Z,36.40
2017-08-04T18:46:47.846Z,35.80
2017-08-04T18:49:15.471Z,37.80
2017-08-04T18:51:43.085Z,36.60
2017-08-04T18:54:11.513Z,37.40
2017-08-04T18:56:39.129Z,37.30
2017-08-04T18:59:06.733Z,37.60
2017-08-04T19:01:34.415Z,36.80
2017-08-04T19:04:02.024Z,39.60
2017-08-04T19:06:30.439Z,40.40
2017-08-04T19:08:58.048Z,39.60
2017-08-04T19:11:26.448Z,42.80
2017-08-04T19:13:54.111Z,42.70
2017-08-04T19:16:21.872Z,40.40
2017-08-04T19:18:49.524Z,40.10
2017-08-04T19:21:17.929Z,38.60
2017-08-04T19:23:45.545Z,38.50
2017-08-04T19:26:13.184Z,37.80
2017-08-04T19:28:40.805Z,38.60
2017-08-04T19:31:08.484Z,37.50
2017-08-04T19:33:36.885Z,39.50
2017-08-04T19:36:04.925Z,38.90
2017-08-04T19:38:32.763Z,41.60
2017-08-04T19:41:00.382Z,38.50
2017-08-04T19:43:28.030Z,39.50
2017-08-04T19:45:55.656Z,40.00
2017-08-04T19:48:23.280Z,38.80
2017-08-04T19:50:50.920Z,39.30
2017-08-04T19:53:18.541Z,39.90
2017-08-04T19:55:46.175Z,40.10
2017-08-04T19:58:13.784Z,41.50
2017-08-04T20:00:41.397Z,41.20
2017-08-04T20:03:09.063Z,38.60
2017-08-04T20:05:36.821Z,38.30
2017-08-04T20:08:04.487Z,37.60
2017-08-04T20:10:32.107Z,38.00
2017-08-04T20:12:59.756Z,39.20
2017-08-04T20:15:27.400Z,42.50
2017-08-04T20:17:55.016Z,39.70
2017-08-04T20:20:23.426Z,41.80
2017-08-04T20:22:51.104Z,41.60
2017-08-04T20:25:18.721Z,43.40
2017-08-04T20:27:46.397Z,42.90
2017-08-04T20:30:14.018Z,42.90
2017-08-04T20:32:41.665Z,45.10
2017-08-04T20:35:09.312Z,47.20
2017-08-04T20:37:36.921Z,50.00
2017-08-04T20:40:04.559Z,51.20
2017-08-04T20:42:32.172Z,50.40
2017-08-04T20:44:59.837Z,51.20
2017-08-04T20:47:27.444Z,51.30
2017-08-04T20:49:55.075Z,51.30
2017-08-04T20:52:22.732Z,51.00
2017-08-04T20:54:50.361Z,51.30
2017-08-04T20:57:18.013Z,50.20
2017-08-04T20:59:45.641Z,53.30
2017-08-04T21:02:13.559Z,56.10
2017-08-04T21:04:41.296Z,53.20
2017-08-04T21:07:08.909Z,58.50
2017-08-04T21:09:36.607Z,55.10
2017-08-04T21:12:04.987Z,55.80
2017-08-04T21:14:33.383Z,55.10
2017-08-04T21:17:01.042Z,55.00
2017-08-04T21:19:28.662Z,57.20
2017-08-04T21:21:56.308Z,57.20
2017-08-04T21:24:23.925Z,56.70
2017-08-04T21:26:51.532Z,58.40
2017-08-04T21:29:19.179Z,59.30
2017-08-04T21:31:46.806Z,57.50
2017-08-04T21:34:15.197Z,58.10
2017-08-04T21:36:42.821Z,58.70
2017-08-04T21:39:10.455Z,57.50
2017-08-04T21:41:38.094Z,56.50
2017-08-04T21:44:05.912Z,57.40
2017-08-04T21:46:34.308Z,58.20
2017-08-04T21:49:01.943Z,58.00
2017-08-04T21:51:29.586Z,58.60
2017-08-04T21:53:57.221Z,58.30
2017-08-04T21:56:25.599Z,60.60
2017-08-04T21:58:53.244Z,60.60
2017-08-04T22:01:21.019Z,60.10
2017-08-04T22:03:48.628Z,61.20
2017-08-04T22:06:17.027Z,62.20
2017-08-04T22:08:46.905Z,62.10
2017-08-04T22:11:14.561Z,62.10
2017-08-04T22:13:42.165Z,62.80
2017-08-04T22:16:09.831Z,64.80
2017-08-04T22:18:38.243Z,62.70
2017-08-04T22:21:05.851Z,62.70
2017-08-04T22:23:34.255Z,59.30
2017-08-04T22:26:01.885Z,59.30
2017-08-04T22:28:29.521Z,59.20
2017-08-04T22:30:57.155Z,59.00
2017-08-04T22:33:24.778Z,61.80
2017-08-04T22:35:53.189Z,58.90
2017-08-04T22:38:20.804Z,58.40
2017-08-04T22:40:50.079Z,54.10
2017-08-04T22:43:18.498Z,57.50
2017-08-04T22:45:46.097Z,57.50
2017-08-04T22:48:14.501Z,54.60
2017-08-04T22:50:42.113Z,54.40
2017-08-04T22:53:09.850Z,53.40
2017-08-04T22:55:38.258Z,49.30
2017-08-04T22:58:05.888Z,49.20
2017-08-04T23:00:33.545Z,50.90
2017-08-04T23:03:01.152Z,52.90
2017-08-04T23:05:29.606Z,44.30
2017-08-04T23:07:58.006Z,43.30
2017-08-04T23:10:25.662Z,43.20
2017-08-04T23:12:53.309Z,44.50
2017-08-04T23:15:20.937Z,42.60
2017-08-04T23:17:48.545Z,40.10
2017-08-04T23:20:16.191Z,39.90
2017-08-04T23:22:43.810Z,38.90
2017-08-04T23:25:11.440Z,38.70
2017-08-04T23:27:39.080Z,38.60
2017-08-04T23:30:06.706Z,38.50
2017-08-04T23:32:35.127Z,43.10
2017-08-04T23:35:02.738Z,43.10
2017-08-04T23:37:30.370Z,43.00
2017-08-04T23:39:57.973Z,42.10
2017-08-04T23:42:25.605Z,40.20
2017-08-04T23:44:53.243Z,38.20
2017-08-04T23:47:20.916Z,38.20
2017-08-04T23:49:48.551Z,38.00
2017-08-04T23:52:16.171Z,38.60
2017-08-04T23:54:43.777Z,41.60
2017-08-04T23:57:12.198Z,42.60
2017-08-04T23:59:39.901Z,41.90
